createdAt,value
2023-04-17T00:02:14.473Z,10.52
2023-04-17T00:04:41.591Z,10.52
2023-04-17T00:07:08.739Z,10.54
2023-04-17T00:09:35.594Z,10.54
2023-04-17T00:12:02.898Z,10.52
2023-04-17T00:14:31.085Z,10.52
2023-04-17T00:16:57.876Z,10.52
2023-04-17T00:19:24.903Z,10.48
2023-04-17T00:21:51.739Z,10.46
2023-04-17T00:24:18.623Z,10.45
2023-04-17T00:26:45.560Z,10.45
2023-04-17T00:29:12.772Z,10.44
2023-04-17T00:31:41.230Z,10.46
2023-04-17T00:34:08.400Z,10.43
2023-04-17T00:36:35.434Z,10.42
2023-04-17T00:39:02.417Z,10.41
2023-04-17T00:41:29.255Z,10.40
2023-04-17T00:43:56.137Z,10.41
2023-04-17T00:46:23.985Z,10.39
2023-04-17T00:48:52.772Z,10.38
2023-04-17T00:51:19.976Z,10.34
2023-04-17T00:53:48.059Z,10.34
2023-04-17T00:56:14.958Z,10.31
2023-04-17T00:58:41.862Z,10.28
2023-04-17T01:01:10.888Z,10.29
2023-04-17T01:03:38.043Z,10.30
2023-04-17T01:06:07.193Z,10.29
2023-04-17T01:08:42.055Z,10.30
2023-04-17T01:11:09.756Z,10.27
2023-04-17T01:13:45.273Z,10.27
2023-04-17T01:16:12.391Z,10.27
2023-04-17T01:18:39.560Z,10.29
2023-04-17T01:21:08.023Z,10.24
2023-04-17T01:23:44.709Z,10.23
2023-04-17T01:26:17.800Z,10.24
2023-04-17T01:28:51.362Z,10.24
2023-04-17T01:31:19.514Z,10.20
2023-04-17T01:33:46.922Z,10.19
2023-04-17T01:36:14.437Z,10.14
2023-04-17T01:38:41.968Z,10.16
2023-04-17T01:41:09.544Z,10.15
2023-04-17T01:43:41.320Z,10.12
2023-04-17T01:46:09.177Z,10.08
2023-04-17T01:48:37.001Z,10.07
2023-04-17T01:51:05.307Z,10.09
2023-04-17T01:53:33.072Z,10.10
2023-04-17T01:56:00.324Z,10.02
2023-04-17T01:58:28.174Z,9.97
2023-04-17T02:00:56.902Z,9.97
2023-04-17T02:03:23.909Z,9.97
2023-04-17T02:05:52.714Z,9.95
2023-04-17T02:08:19.668Z,9.91
2023-04-17T02:10:46.578Z,9.92
2023-04-17T02:13:13.584Z,9.92
2023-04-17T02:15:42.984Z,9.94
2023-04-17T02:18:11.824Z,9.95
2023-04-17T02:20:39.099Z,9.94
2023-04-17T02:23:06.878Z,9.96
2023-04-17T02:25:34.202Z,9.97
2023-04-17T02:28:01.688Z,9.95
2023-04-17T02:30:29.240Z,9.99
2023-04-17T02:32:58.486Z,9.99
2023-04-17T02:35:30.162Z,10.00
2023-04-17T02:37:57.920Z,10.01
2023-04-17T02:40:24.856Z,10.04
2023-04-17T02:42:58.947Z,10.06
2023-04-17T02:45:26.048Z,10.04
2023-04-17T02:47:52.963Z,10.06
2023-04-17T02:50:20.196Z,10.07
2023-04-17T02:53:08.849Z,9.99
2023-04-17T02:55:36.138Z,9.97
2023-04-17T02:58:03.213Z,9.97
2023-04-17T03:01:09.727Z,9.95
2023-04-17T03:03:42.505Z,9.97
2023-04-17T03:06:12.422Z,10.00
2023-04-17T03:08:42.190Z,10.01
2023-04-17T03:11:09.751Z,10.02
2023-04-17T03:13:36.847Z,9.99
2023-04-17T03:16:04.793Z,10.00
2023-04-17T03:18:35.516Z,9.99
2023-04-17T03:21:02.884Z,10.00
2023-04-17T03:23:29.846Z,10.00
2023-04-17T03:25:58.591Z,10.03
2023-04-17T03:28:26.241Z,10.02
2023-04-17T03:30:53.318Z,10.06
2023-04-17T03:33:20.515Z,10.06
2023-04-17T03:35:48.273Z,10.04
2023-04-17T03:38:16.718Z,10.03
2023-04-17T03:40:45.058Z,9.99
2023-04-17T03:43:14.287Z,10.00
2023-04-17T03:45:41.368Z,10.01
2023-04-17T03:48:08.209Z,10.01
2023-04-17T03:50:36.098Z,10.03
2023-04-17T03:53:03.571Z,10.05
2023-04-17T03:55:31.684Z,10.06
2023-04-17T03:57:58.904Z,10.06
2023-04-17T04:00:31.055Z,10.06
2023-04-17T04:03:02.259Z,10.07
2023-04-17T04:05:36.417Z,10.09
2023-04-17T04:08:04.821Z,10.05
2023-04-17T04:10:38.936Z,10.05
2023-04-17T04:13:06.326Z,10.01
2023-04-17T04:15:34.584Z,10.05
2023-04-17T04:18:05.749Z,10.08
2023-04-17T04:20:32.707Z,10.10
2023-04-17T04:23:12.027Z,10.09
2023-04-17T04:25:39.700Z,10.11
2023-04-17T04:28:16.508Z,10.15
2023-04-17T04:30:45.027Z,10.18
2023-04-17T04:33:15.276Z,10.18
2023-04-17T04:35:42.134Z,10.20
2023-04-17T04:38:11.686Z,10.20
2023-04-17T04:40:39.073Z,10.19
2023-04-17T04:43:07.737Z,10.20
2023-04-17T04:45:39.956Z,10.23
2023-04-17T04:48:08.207Z,10.25
2023-04-17T04:50:35.550Z,10.25
2023-04-17T04:53:02.593Z,10.24
2023-04-17T04:56:08.309Z,10.26
2023-04-17T04:58:35.951Z,10.24
2023-04-17T05:01:04.213Z,10.25
2023-04-17T05:03:40.752Z,10.19
2023-04-17T05:06:09.674Z,10.23
2023-04-17T05:08:44.914Z,10.26
2023-04-17T05:11:15.286Z,10.28
2023-04-17T05:13:42.539Z,10.30
2023-04-17T05:16:16.149Z,10.33
2023-04-17T05:18:44.331Z,10.35
2023-04-17T05:21:14.584Z,10.35
2023-04-17T05:23:42.062Z,10.34
2023-04-17T05:26:09.761Z,10.36
2023-04-17T05:28:36.764Z,10.32
2023-04-17T05:31:04.262Z,10.28
2023-04-17T05:33:35.830Z,10.32
2023-04-17T05:36:06.173Z,10.30
2023-04-17T05:38:36.185Z,10.35
2023-04-17T05:41:06.811Z,10.39
2023-04-17T05:43:34.190Z,10.43
2023-04-17T05:46:01.817Z,10.42
2023-04-17T05:48:28.937Z,10.42
2023-04-17T05:50:56.635Z,10.45
2023-04-17T05:53:24.979Z,10.41
2023-04-17T05:55:55.920Z,10.40
2023-04-17T05:58:24.399Z,10.47
2023-04-17T06:00:56.770Z,10.47
2023-04-17T06:03:26.193Z,10.48
2023-04-17T06:06:09.748Z,10.52
2023-04-17T06:08:38.243Z,10.54
2023-04-17T06:11:05.616Z,10.55
2023-04-17T06:13:33.256Z,10.61
2023-04-17T06:16:00.335Z,10.57
2023-04-17T06:18:27.197Z,10.53
2023-04-17T06:20:55.496Z,10.57
2023-04-17T06:23:23.501Z,10.62
2023-04-17T06:25:52.389Z,10.65
2023-04-17T06:28:19.251Z,10.66
2023-04-17T06:30:50.901Z,10.70
2023-04-17T06:33:19.230Z,10.72
2023-04-17T06:35:46.896Z,10.72
2023-04-17T06:38:36.903Z,10.75
2023-04-17T06:41:05.524Z,10.78
2023-04-17T06:43:32.707Z,10.78
2023-04-17T06:46:11.609Z,10.77
2023-04-17T06:48:38.590Z,10.79
2023-04-17T06:51:06.271Z,10.79
2023-04-17T06:53:33.195Z,10.80
2023-04-17T06:56:00.974Z,10.80
2023-04-17T06:58:29.286Z,10.76
2023-04-17T07:00:56.165Z,10.75
2023-04-17T07:03:23.205Z,10.72
2023-04-17T07:05:51.328Z,10.72
2023-04-17T07:08:19.346Z,10.74
2023-04-17T07:10:46.813Z,10.75
2023-04-17T07:13:13.688Z,10.75
2023-04-17T07:15:43.810Z,10.77
2023-04-17T07:18:11.343Z,10.74
2023-04-17T07:20:38.212Z,10.74
2023-04-17T07:23:05.526Z,10.76
2023-04-17T07:25:32.771Z,10.79
2023-04-17T07:27:59.715Z,10.76
2023-04-17T07:30:26.728Z,10.77
2023-04-17T07:32:55.024Z,10.75
2023-04-17T07:35:24.335Z,10.73
2023-04-17T07:37:52.239Z,10.65
2023-04-17T07:40:19.395Z,10.68
2023-04-17T07:42:47.393Z,10.73
2023-04-17T07:45:14.423Z,10.78
2023-04-17T07:47:41.498Z,10.80
2023-04-17T07:50:10.621Z,10.74
2023-04-17T07:52:38.414Z,10.88
2023-04-17T07:55:06.065Z,11.01
2023-04-17T07:57:33.167Z,11.09
2023-04-17T08:00:00.068Z,11.12
2023-04-17T08:02:27.278Z,11.32
2023-04-17T08:04:54.213Z,10.99
2023-04-17T08:07:23.473Z,11.10
2023-04-17T08:09:51.216Z,11.31
2023-04-17T08:12:18.269Z,11.56
2023-04-17T08:14:45.174Z,11.76
2023-04-17T08:17:12.267Z,11.89
2023-04-17T08:19:39.705Z,11.85
2023-04-17T08:22:07.888Z,12.02
2023-04-17T08:24:38.046Z,11.82
2023-04-17T08:27:05.001Z,11.70
2023-04-17T08:29:32.412Z,11.92
2023-04-17T08:32:13.290Z,11.99
2023-04-17T08:34:44.174Z,11.71
2023-04-17T08:37:11.492Z,11.82
2023-04-17T08:39:39.822Z,11.91
2023-04-17T08:42:12.091Z,11.82
2023-04-17T08:44:43.966Z,11.88
2023-04-17T08:47:12.715Z,11.99
2023-04-17T08:49:40.518Z,11.61
2023-04-17T08:52:08.128Z,11.60
2023-04-17T08:54:36.231Z,11.70
2023-04-17T08:57:06.100Z,11.59
2023-04-17T08:59:33.798Z,11.85
2023-04-17T09:02:03.722Z,11.74
2023-04-17T09:04:40.652Z,11.87
2023-04-17T09:07:10.056Z,11.91
2023-04-17T09:09:51.223Z,11.76
2023-04-17T09:12:22.467Z,12.09
2023-04-17T09:14:50.362Z,12.26
2023-04-17T09:17:21.570Z,12.43
2023-04-17T09:20:07.514Z,12.04
2023-04-17T09:22:36.369Z,11.92
2023-04-17T09:25:05.191Z,11.73
2023-04-17T09:27:33.415Z,11.59
2023-04-17T09:30:03.517Z,11.50
2023-04-17T09:32:34.111Z,11.54
2023-04-17T09:35:03.852Z,11.60
2023-04-17T09:37:53.773Z,11.57
2023-04-17T09:40:23.506Z,11.57
2023-04-17T09:43:00.109Z,11.60
2023-04-17T09:45:30.995Z,11.69
2023-04-17T09:47:58.087Z,11.98
2023-04-17T09:50:25.755Z,12.19
2023-04-17T09:52:55.272Z,11.96
2023-04-17T09:55:24.312Z,11.90
2023-04-17T09:57:57.840Z,11.82
2023-04-17T10:00:27.775Z,11.95
2023-04-17T10:02:57.056Z,12.18
2023-04-17T10:05:28.093Z,12.01
2023-04-17T10:07:56.810Z,12.11
2023-04-17T10:10:25.628Z,12.31
2023-04-17T10:12:58.314Z,12.18
2023-04-17T10:15:28.298Z,12.50
2023-04-17T10:18:16.695Z,12.62
2023-04-17T10:20:43.906Z,12.81
2023-04-17T10:23:31.721Z,12.51
2023-04-17T10:26:41.579Z,12.17
2023-04-17T10:29:11.722Z,12.48
2023-04-17T10:32:23.286Z,12.49
2023-04-17T10:34:50.628Z,12.54
2023-04-17T10:37:18.546Z,12.59
2023-04-17T10:39:56.340Z,12.51
2023-04-17T10:42:25.310Z,12.60
2023-04-17T10:45:02.113Z,12.56
2023-04-17T10:47:34.907Z,12.57
2023-04-17T10:50:07.233Z,12.67
2023-04-17T10:52:43.672Z,12.74
2023-04-17T10:55:17.690Z,12.75
2023-04-17T10:58:00.032Z,12.76
2023-04-17T11:00:49.934Z,12.85
2023-04-17T11:03:41.173Z,12.79
2023-04-17T11:06:45.434Z,13.01
2023-04-17T11:09:15.263Z,12.61
2023-04-17T11:11:45.788Z,12.69
2023-04-17T11:14:17.305Z,12.59
2023-04-17T11:16:55.945Z,12.72
2023-04-17T11:19:51.599Z,12.46
2023-04-17T11:22:31.084Z,12.37
2023-04-17T11:25:19.447Z,12.29
2023-04-17T11:27:46.537Z,12.47
2023-04-17T11:30:27.931Z,12.60
2023-04-17T11:32:58.931Z,12.47
2023-04-17T11:35:33.421Z,12.67
2023-04-17T11:38:25.197Z,12.80
2023-04-17T11:40:55.404Z,12.90
2023-04-17T11:43:24.361Z,12.89
2023-04-17T11:45:53.347Z,12.89
2023-04-17T11:48:27.253Z,12.80
2023-04-17T11:50:56.999Z,12.76
2023-04-17T11:53:25.692Z,12.78
2023-04-17T11:56:12.331Z,12.80
2023-04-17T11:58:50.225Z,12.81
2023-04-17T12:01:20.366Z,12.83
2023-04-17T12:03:48.750Z,12.92
2023-04-17T12:06:16.714Z,13.05
2023-04-17T12:08:49.699Z,13.11
2023-04-17T12:11:23.668Z,13.18
2023-04-17T12:13:50.664Z,13.19
2023-04-17T12:16:18.768Z,13.08
2023-04-17T12:18:45.913Z,13.03
2023-04-17T12:21:14.627Z,13.00
2023-04-17T12:23:41.877Z,12.87
2023-04-17T12:26:09.829Z,12.59
2023-04-17T12:28:37.777Z,12.17
2023-04-17T12:31:05.735Z,12.07
2023-04-17T12:33:33.551Z,12.02
2023-04-17T12:36:03.934Z,12.02
2023-04-17T12:38:32.552Z,12.00
2023-04-17T12:41:00.512Z,12.06
2023-04-17T12:43:27.570Z,12.01
2023-04-17T12:45:54.859Z,11.94
2023-04-17T12:48:21.776Z,11.88
2023-04-17T12:50:48.618Z,11.89
2023-04-17T12:53:17.601Z,11.92
2023-04-17T12:55:45.907Z,12.00
2023-04-17T12:58:13.556Z,12.05
2023-04-17T13:00:41.589Z,12.06
2023-04-17T13:03:08.758Z,12.17
2023-04-17T13:05:36.087Z,12.22
2023-04-17T13:08:03.004Z,12.28
2023-04-17T13:10:30.572Z,12.42
2023-04-17T13:12:59.111Z,12.31
2023-04-17T13:15:26.019Z,12.37
2023-04-17T13:17:53.062Z,12.46
2023-04-17T13:20:20.034Z,12.56
2023-04-17T13:22:47.255Z,12.72
2023-04-17T13:25:14.333Z,12.61
2023-04-17T13:27:41.560Z,12.77
2023-04-17T13:30:11.181Z,12.93
2023-04-17T13:32:39.667Z,12.99
2023-04-17T13:35:08.088Z,12.80
2023-04-17T13:37:35.060Z,12.53
2023-04-17T13:40:02.818Z,12.53
2023-04-17T13:42:29.958Z,12.68
2023-04-17T13:44:56.920Z,12.56
2023-04-17T13:47:25.160Z,12.58
2023-04-17T13:49:52.189Z,12.52
2023-04-17T13:52:19.116Z,12.48
2023-04-17T13:54:46.348Z,12.44
2023-04-17T13:57:13.223Z,12.63
2023-04-17T13:59:40.445Z,12.63
2023-04-17T14:02:07.959Z,12.79
2023-04-17T14:04:36.399Z,12.85
2023-04-17T14:07:03.611Z,12.93
2023-04-17T14:09:36.151Z,12.51
2023-04-17T14:12:03.465Z,12.40
2023-04-17T14:14:31.909Z,12.43
2023-04-17T14:16:59.151Z,12.44
2023-04-17T14:19:29.760Z,12.25
2023-04-17T14:21:59.538Z,12.24
2023-04-17T14:24:26.696Z,12.35
2023-04-17T14:26:54.743Z,12.21
2023-04-17T14:29:22.119Z,12.20
2023-04-17T14:31:49.263Z,12.21
2023-04-17T14:34:16.559Z,12.38
2023-04-17T14:36:44.076Z,12.29
2023-04-17T14:39:13.414Z,12.51
2023-04-17T14:41:41.318Z,12.57
2023-04-17T14:44:08.252Z,12.63
2023-04-17T14:46:35.349Z,12.63
2023-04-17T14:49:02.452Z,12.67
2023-04-17T14:51:30.697Z,12.62
2023-04-17T14:53:58.735Z,12.69
2023-04-17T14:56:27.135Z,12.53
2023-04-17T14:58:54.038Z,12.50
2023-04-17T15:01:20.999Z,12.53
2023-04-17T15:03:48.777Z,12.45
2023-04-17T15:06:16.565Z,12.52
2023-04-17T15:08:43.796Z,12.60
2023-04-17T15:11:10.683Z,12.61
2023-04-17T15:13:38.954Z,12.67
2023-04-17T15:16:08.470Z,12.72
2023-04-17T15:18:36.424Z,12.76
2023-04-17T15:21:03.551Z,12.78
2023-04-17T15:23:30.977Z,12.70
2023-04-17T15:25:58.856Z,12.62
2023-04-17T15:28:25.933Z,12.42
2023-04-17T15:30:56.117Z,12.53
2023-04-17T15:33:22.938Z,12.54
2023-04-17T15:35:54.380Z,12.48
2023-04-17T15:38:21.782Z,12.54
2023-04-17T15:40:48.667Z,12.56
2023-04-17T15:43:15.974Z,12.57
2023-04-17T15:45:43.290Z,12.68
2023-04-17T15:48:11.680Z,12.68
2023-04-17T15:50:38.573Z,12.70
2023-04-17T15:53:06.023Z,12.60
2023-04-17T15:55:33.463Z,12.50
2023-04-17T15:58:00.305Z,12.70
2023-04-17T16:00:27.506Z,12.52
2023-04-17T16:02:55.261Z,12.64
2023-04-17T16:05:23.805Z,12.63
2023-04-17T16:07:50.690Z,12.64
2023-04-17T16:10:17.857Z,12.73
2023-04-17T16:12:45.934Z,12.71
2023-04-17T16:15:15.815Z,12.61
2023-04-17T16:17:43.053Z,12.57
2023-04-17T16:20:15.001Z,12.62
2023-04-17T16:22:44.764Z,12.63
2023-04-17T16:25:12.158Z,12.60
2023-04-17T16:27:41.022Z,12.59
2023-04-17T16:30:10.237Z,12.62
2023-04-17T16:32:37.842Z,12.57
2023-04-17T16:35:08.075Z,12.51
2023-04-17T16:37:35.157Z,12.58
2023-04-17T16:40:04.359Z,12.55
2023-04-17T16:42:36.707Z,12.58
2023-04-17T16:45:07.526Z,12.53
2023-04-17T16:47:35.087Z,12.44
2023-04-17T16:50:02.377Z,12.29
2023-04-17T16:52:29.246Z,12.27
2023-04-17T16:54:56.485Z,12.30
2023-04-17T16:57:25.062Z,12.22
2023-04-17T16:59:53.110Z,12.19
2023-04-17T17:02:21.147Z,12.19
2023-04-17T17:04:48.630Z,12.18
2023-04-17T17:07:16.186Z,12.03
2023-04-17T17:09:43.194Z,12.04
2023-04-17T17:12:10.926Z,11.94
2023-04-17T17:14:39.634Z,11.79
2023-04-17T17:17:07.079Z,11.81
2023-04-17T17:19:36.035Z,11.84
2023-04-17T17:22:03.172Z,11.83
2023-04-17T17:24:30.232Z,11.61
2023-04-17T17:26:57.360Z,11.63
2023-04-17T17:29:24.520Z,11.65
2023-04-17T17:31:52.912Z,11.42
2023-04-17T17:34:26.505Z,11.39
2023-04-17T17:36:55.108Z,11.39
2023-04-17T17:39:22.492Z,11.45
2023-04-17T17:41:49.808Z,11.51
2023-04-17T17:44:16.856Z,11.42
2023-04-17T17:46:44.500Z,11.35
2023-04-17T17:49:12.999Z,11.41
2023-04-17T17:51:39.952Z,11.29
2023-04-17T17:54:07.457Z,11.28
2023-04-17T17:56:34.443Z,11.32
2023-04-17T17:59:01.604Z,11.33
2023-04-17T18:01:28.648Z,11.31
2023-04-17T18:03:55.887Z,11.27
2023-04-17T18:06:24.897Z,11.24
2023-04-17T18:08:52.066Z,11.15
2023-04-17T18:11:19.058Z,11.19
2023-04-17T18:13:46.018Z,11.16
2023-04-17T18:16:12.974Z,11.18
2023-04-17T18:18:39.910Z,11.15
2023-04-17T18:21:07.380Z,11.16
2023-04-17T18:23:35.909Z,11.15
2023-04-17T18:26:04.007Z,11.07
2023-04-17T18:28:31.029Z,11.02
2023-04-17T18:30:58.147Z,11.00
2023-04-17T18:33:25.422Z,11.01
2023-04-17T18:35:52.483Z,11.01
2023-04-17T18:38:19.544Z,11.03
2023-04-17T18:40:53.554Z,10.98
2023-04-17T18:43:20.461Z,10.92
2023-04-17T18:45:47.350Z,10.90
2023-04-17T18:48:14.366Z,10.94
2023-04-17T18:50:41.556Z,10.90
2023-04-17T18:53:08.816Z,10.90
2023-04-17T18:55:37.207Z,10.93
2023-04-17T18:58:10.389Z,10.83
2023-04-17T19:00:37.816Z,10.81
2023-04-17T19:03:05.647Z,10.82
2023-04-17T19:05:33.142Z,10.81
2023-04-17T19:08:00.567Z,10.75
2023-04-17T19:10:27.732Z,10.76
2023-04-17T19:12:55.313Z,10.76
2023-04-17T19:15:24.288Z,10.78
2023-04-17T19:17:51.324Z,10.70
2023-04-17T19:20:18.456Z,10.66
2023-04-17T19:22:45.275Z,10.69
2023-04-17T19:25:12.478Z,10.66
2023-04-17T19:27:40.366Z,10.67
2023-04-17T19:30:10.535Z,10.68
2023-04-17T19:32:39.010Z,10.64
2023-04-17T19:35:07.717Z,10.68
2023-04-17T19:37:34.774Z,10.74
2023-04-17T19:40:04.274Z,10.79
2023-04-17T19:42:35.752Z,10.81
2023-04-17T19:45:02.722Z,10.63
2023-04-17T19:47:30.285Z,10.73
2023-04-17T19:49:58.781Z,10.76
2023-04-17T19:52:25.772Z,10.80
2023-04-17T19:54:52.649Z,10.84
2023-04-17T19:57:19.849Z,10.92
2023-04-17T19:59:46.729Z,10.83
2023-04-17T20:02:13.832Z,10.70
2023-04-17T20:04:41.040Z,10.73
2023-04-17T20:07:09.797Z,10.68
2023-04-17T20:09:37.410Z,10.70
2023-04-17T20:12:05.044Z,10.70
2023-04-17T20:14:32.076Z,10.82
2023-04-17T20:16:59.245Z,10.84
2023-04-17T20:19:26.319Z,10.92
2023-04-17T20:21:53.202Z,10.69
2023-04-17T20:24:21.490Z,10.79
2023-04-17T20:26:48.527Z,10.64
2023-04-17T20:29:15.718Z,10.58
2023-04-17T20:31:44.435Z,10.35
2023-04-17T20:34:12.243Z,10.49
2023-04-17T20:36:39.490Z,10.44
2023-04-17T20:39:06.844Z,10.24
2023-04-17T20:41:36.461Z,10.22
2023-04-17T20:44:05.750Z,10.00
2023-04-17T20:46:33.503Z,9.74
2023-04-17T20:49:01.257Z,9.89
2023-04-17T20:51:28.486Z,9.84
2023-04-17T20:53:56.479Z,9.83
2023-04-17T20:56:23.541Z,9.84
2023-04-17T20:58:51.770Z,9.85
2023-04-17T21:01:20.576Z,9.83
2023-04-17T21:03:48.165Z,9.80
2023-04-17T21:06:15.193Z,9.77
2023-04-17T21:08:42.122Z,9.79
2023-04-17T21:11:08.979Z,9.79
2023-04-17T21:13:35.841Z,9.78
2023-04-17T21:16:05.511Z,9.75
2023-04-17T21:18:32.691Z,9.72
2023-04-17T21:20:59.517Z,9.72
2023-04-17T21:23:26.451Z,9.69
2023-04-17T21:25:53.497Z,9.71
2023-04-17T21:28:22.244Z,9.67
2023-04-17T21:30:49.387Z,9.69
2023-04-17T21:33:17.599Z,9.73
2023-04-17T21:35:44.479Z,9.72
2023-04-17T21:38:12.111Z,9.73
2023-04-17T21:40:50.619Z,9.76
2023-04-17T21:43:18.668Z,9.76
2023-04-17T21:45:45.527Z,9.76
2023-04-17T21:48:14.546Z,9.67
2023-04-17T21:50:42.855Z,9.70
2023-04-17T21:53:09.903Z,9.70
2023-04-17T21:55:38.693Z,9.68
2023-04-17T21:58:05.689Z,9.66
2023-04-17T22:00:33.071Z,9.61
2023-04-17T22:03:00.025Z,9.62
2023-04-17T22:05:26.992Z,9.62
2023-04-17T22:07:55.665Z,9.63
2023-04-17T22:10:23.633Z,9.63
2023-04-17T22:12:51.206Z,9.68
2023-04-17T22:15:18.234Z,9.67
2023-04-17T22:17:45.224Z,9.72
2023-04-17T22:20:13.124Z,9.72
2023-04-17T22:22:40.068Z,9.73
2023-04-17T22:25:09.460Z,9.72
2023-04-17T22:27:36.308Z,9.74
2023-04-17T22:30:05.187Z,9.77
2023-04-17T22:32:33.985Z,9.78
2023-04-17T22:35:00.873Z,9.80
2023-04-17T22:37:28.491Z,9.82
2023-04-17T22:39:55.329Z,9.83
2023-04-17T22:42:23.624Z,9.83
2023-04-17T22:44:50.775Z,9.82
2023-04-17T22:47:19.578Z,9.82
2023-04-17T22:49:46.437Z,9.83
2023-04-17T22:52:13.379Z,9.80
2023-04-17T22:54:40.291Z,9.77
2023-04-17T22:57:07.144Z,9.59
2023-04-17T22:59:35.323Z,9.50
2023-04-17T23:02:02.404Z,9.40
2023-04-17T23:04:29.366Z,9.41
2023-04-17T23:06:57.001Z,9.41
2023-04-17T23:09:24.569Z,9.38
2023-04-17T23:11:51.432Z,9.18
2023-04-17T23:14:18.319Z,9.16
2023-04-17T23:16:46.753Z,9.27
2023-04-17T23:19:13.603Z,9.35
2023-04-17T23:21:40.425Z,9.41
2023-04-17T23:24:07.291Z,9.30
2023-04-17T23:26:34.544Z,9.34
2023-04-17T23:29:01.819Z,9.31
2023-04-17T23:31:28.953Z,9.35
2023-04-17T23:33:57.246Z,9.39
2023-04-17T23:36:24.486Z,9.44
2023-04-17T23:38:51.296Z,9.52
2023-04-17T23:41:18.175Z,9.44
2023-04-17T23:43:45.256Z,9.45
2023-04-17T23:46:12.296Z,9.30
2023-04-17T23:48:39.127Z,9.34
2023-04-17T23:51:07.274Z,9.25
2023-04-17T23:53:34.182Z,9.32
2023-04-17T23:56:01.220Z,9.50
2023-04-17T23:58:28.268Z,9.64
